Time;durP1;ratioP1;P1;durP2;ratioP2;P2;SDS_P1;SDS_P2;PMS_P1;PMS_P2;Temp;Humidity;BMP_temperature;BMP_pressure;BME280_temperature;BME280_humidity;BME280_pressure;Samples;Min_cycle;Max_cycle;Signal;HPM_P1;HPM_P2
2021/12/20 00:00:49;;;;;;;;;;;5.90;99.90;;;;;;5056338;28;20600;-79
2021/12/20 00:03:15;;;;;;;;;;;5.90;99.90;;;;;;5107409;28;19939;-80
2021/12/20 00:05:41;;;;;;;;;;;5.90;99.90;;;;;;5084762;28;20400;-79
2021/12/20 00:08:06;;;;;;;;;;;5.80;99.90;;;;;;5084045;28;20013;-78
2021/12/20 00:10:32;;;;;;;;;;;5.80;99.90;;;;;;5127054;27;20008;-79
2021/12/20 00:12:58;;;;;;;;;;;5.90;99.90;;;;;;5093071;28;19935;-80
2021/12/20 00:15:23;;;;;;;;;;;5.90;99.90;;;;;;5092663;28;20498;-81
2021/12/20 00:17:49;;;;;;;;;;;5.80;99.90;;;;;;5093866;28;19966;-79
2021/12/20 00:20:15;;;;;;;;;;;5.90;99.90;;;;;;5094067;28;19935;-80
2021/12/20 00:22:40;;;;;;;;;;;5.80;99.90;;;;;;5095965;28;19920;-79
2021/12/20 00:25:06;;;;;;;;;;;5.80;99.90;;;;;;5112115;28;19931;-79
2021/12/20 00:27:32;;;;;;;;;;;5.80;99.90;;;;;;5094240;28;19993;-79
2021/12/20 00:29:58;;;;;;;;;;;5.80;99.90;;;;;;5074972;28;20384;-83
2021/12/20 00:32:24;;;;;;;;;;;5.80;99.90;;;;;;5107272;28;20296;-80
2021/12/20 00:34:49;;;;;;;;;;;5.80;99.90;;;;;;5069641;28;19970;-79
2021/12/20 00:42:44;;;;;;;;;;;5.90;99.90;;;;;;5118698;28;19981;-79
2021/12/20 00:45:11;;;;;;;;;;;5.80;99.90;;;;;;5119413;28;19928;-79
2021/12/20 00:47:37;;;;;;;;;;;5.90;99.90;;;;;;5107792;28;19982;-79
2021/12/20 00:50:04;;;;;;;;;;;5.90;99.90;;;;;;5082799;28;19971;-79
2021/12/20 00:52:29;;;;;;;;;;;5.90;99.90;;;;;;5090487;28;19924;-79
2021/12/20 00:54:55;;;;;;;;;;;5.90;99.90;;;;;;5085213;28;19947;-81
2021/12/20 00:57:21;;;;;;;;;;;5.90;99.90;;;;;;5077138;28;19924;-79
2021/12/20 00:59:46;;;;;;;;;;;5.80;99.90;;;;;;5093118;28;20355;-79
2021/12/20 01:02:12;;;;;;;;;;;5.80;99.90;;;;;;5076366;28;19947;-79
2021/12/20 01:04:37;;;;;;;;;;;5.80;99.90;;;;;;5075476;28;19949;-79
2021/12/20 01:07:03;;;;;;;;;;;5.80;99.90;;;;;;5094097;28;20042;-79
2021/12/20 01:09:28;;;;;;;;;;;5.80;99.90;;;;;;5096837;28;19928;-82
2021/12/20 01:12:01;;;;;;;;;;;5.80;99.90;;;;;;5097091;28;20331;-79
2021/12/20 01:14:28;;;;;;;;;;;5.70;99.90;;;;;;5081570;28;20006;-88
2021/12/20 01:16:56;;;;;;;;;;;5.70;99.90;;;;;;5079219;28;19923;-79
2021/12/20 01:19:22;;;;;;;;;;;5.70;99.90;;;;;;5067825;28;19923;-79
2021/12/20 01:21:48;;;;;;;;;;;5.60;99.90;;;;;;5060076;28;19931;-80
2021/12/20 01:24:13;;;;;;;;;;;5.60;99.90;;;;;;5081369;28;20369;-82
2021/12/20 01:26:39;;;;;;;;;;;5.50;99.90;;;;;;5096677;28;19924;-79
2021/12/20 01:29:04;;;;;;;;;;;5.40;99.90;;;;;;5094698;28;20391;-79
2021/12/20 01:31:30;;;;;;;;;;;5.30;99.90;;;;;;5096290;28;19935;-88
2021/12/20 01:33:56;;;;;;;;;;;5.30;99.90;;;;;;5076425;28;19924;-78
2021/12/20 01:36:21;;;;;;;;;;;5.20;99.90;;;;;;5090053;28;20388;-78
2021/12/20 01:38:47;;;;;;;;;;;5.10;99.90;;;;;;5077134;28;19970;-79
2021/12/20 01:41:13;;;;;;;;;;;5.10;99.90;;;;;;5079145;28;19928;-81
2021/12/20 01:43:39;;;;;;;;;;;5.00;99.90;;;;;;5078104;28;19928;-79
2021/12/20 01:46:04;;;;;;;;;;;5.10;99.90;;;;;;5096985;28;20018;-80
2021/12/20 01:48:31;;;;;;;;;;;5.00;99.90;;;;;;5072300;28;19977;-81
2021/12/20 01:53:28;;;;;;;;;;;5.10;99.90;;;;;;5108173;28;19968;-80
2021/12/20 01:55:55;;;;;;;;;;;5.10;99.90;;;;;;5076436;28;20419;-79
2021/12/20 01:58:21;;;;;;;;;;;5.10;99.90;;;;;;5086508;28;19969;-79
2021/12/20 02:03:32;;;;;;;;;;;5.10;99.90;;;;;;5116101;27;19977;-79
2021/12/20 02:05:59;;;;;;;;;;;4.90;99.90;;;;;;5079574;28;19924;-80
2021/12/20 02:08:28;;;;;;;;;;;4.80;99.90;;;;;;5073824;28;19968;-78
2021/12/20 02:10:59;;;;;;;;;;;4.70;99.90;;;;;;5056125;28;19928;-79
2021/12/20 02:13:27;;;;;;;;;;;4.70;99.90;;;;;;5114723;28;20371;-82
2021/12/20 02:15:54;;;;;;;;;;;4.70;99.90;;;;;;5095020;28;19977;-82
2021/12/20 02:18:20;;;;;;;;;;;4.60;99.90;;;;;;5062648;28;20469;-79
2021/12/20 02:20:45;;;;;;;;;;;4.60;99.90;;;;;;5086505;28;19935;-81
2021/12/20 02:23:11;;;;;;;;;;;4.50;99.90;;;;;;5102538;28;20385;-79
2021/12/20 02:25:37;;;;;;;;;;;4.40;99.90;;;;;;5088295;28;19969;-86
2021/12/20 02:28:05;;;;;;;;;;;4.50;99.90;;;;;;5096265;28;20031;-79
2021/12/20 02:36:59;;;;;;;;;;;4.40;99.90;;;;;;5095046;28;19931;-79
2021/12/20 02:38:40;;;;;;;;;;;4.30;99.90;;;;;;5079741;28;19924;-87
2021/12/20 02:41:12;;;;;;;;;;;4.30;99.90;;;;;;5113009;28;20015;-78
2021/12/20 02:43:41;;;;;;;;;;;4.20;99.90;;;;;;5082915;28;19928;-80
2021/12/20 02:46:24;;;;;;;;;;;4.30;99.90;;;;;;5097909;28;19924;-79
2021/12/20 02:48:50;;;;;;;;;;;4.20;99.90;;;;;;5084629;28;19924;-79
2021/12/20 02:51:15;;;;;;;;;;;4.20;99.90;;;;;;5077920;28;20022;-83
2021/12/20 02:53:41;;;;;;;;;;;4.20;99.90;;;;;;5078753;28;19931;-90
2021/12/20 02:56:06;;;;;;;;;;;4.00;99.90;;;;;;5073754;28;19997;-79
2021/12/20 02:58:32;;;;;;;;;;;4.00;99.90;;;;;;5093593;28;19972;-79
2021/12/20 03:00:58;;;;;;;;;;;3.90;99.90;;;;;;5074660;28;20380;-80
2021/12/20 03:03:24;;;;;;;;;;;3.90;99.90;;;;;;5081759;28;20404;-80
2021/12/20 03:05:49;;;;;;;;;;;3.80;99.90;;;;;;5093187;28;20007;-79
2021/12/20 03:08:15;;;;;;;;;;;3.80;99.90;;;;;;5080858;28;20010;-82
2021/12/20 03:10:42;;;;;;;;;;;3.70;99.90;;;;;;5092907;28;20278;-78
2021/12/20 03:13:09;;;;;;;;;;;3.70;99.90;;;;;;5091820;28;19923;-80
2021/12/20 03:15:35;;;;;;;;;;;3.50;99.90;;;;;;5095400;28;19931;-79
2021/12/20 03:18:01;;;;;;;;;;;3.50;99.90;;;;;;5078108;28;19924;-79
2021/12/20 03:20:26;;;;;;;;;;;3.50;99.90;;;;;;5094850;28;19945;-82
2021/12/20 03:22:52;;;;;;;;;;;3.40;99.90;;;;;;5080612;28;20713;-79
2021/12/20 03:25:18;;;;;;;;;;;3.40;99.90;;;;;;5094899;28;19931;-79
2021/12/20 03:27:43;;;;;;;;;;;3.40;99.90;;;;;;5075236;28;20412;-79
2021/12/20 03:30:10;;;;;;;;;;;3.40;99.90;;;;;;5074278;28;20296;-79
2021/12/20 03:32:36;;;;;;;;;;;3.30;99.90;;;;;;5065915;28;19924;-79
2021/12/20 03:35:02;;;;;;;;;;;3.30;99.90;;;;;;5090881;28;20272;-78
2021/12/20 03:37:28;;;;;;;;;;;3.10;99.90;;;;;;5093511;28;20410;-79
2021/12/20 03:39:53;;;;;;;;;;;3.00;99.90;;;;;;5074658;28;19928;-81
2021/12/20 03:42:19;;;;;;;;;;;2.90;99.90;;;;;;5110431;28;20429;-79
2021/12/20 03:44:46;;;;;;;;;;;2.90;99.90;;;;;;5092134;28;20397;-79
2021/12/20 03:47:14;;;;;;;;;;;2.80;99.90;;;;;;5121479;27;19974;-79
2021/12/20 03:49:41;;;;;;;;;;;2.80;99.90;;;;;;5079806;28;19967;-82
2021/12/20 03:52:07;;;;;;;;;;;2.70;99.90;;;;;;5078903;28;19928;-79
2021/12/20 03:54:33;;;;;;;;;;;2.70;99.90;;;;;;5108294;28;19957;-83
2021/12/20 03:56:59;;;;;;;;;;;2.60;99.90;;;;;;5094129;28;19928;-79
2021/12/20 03:59:24;;;;;;;;;;;2.70;99.90;;;;;;5094529;28;20403;-79
2021/12/20 04:01:51;;;;;;;;;;;2.60;99.90;;;;;;5094347;28;19924;-90
2021/12/20 04:04:16;;;;;;;;;;;2.60;99.90;;;;;;5065578;28;20003;-79
2021/12/20 04:06:42;;;;;;;;;;;2.50;99.90;;;;;;5045870;28;20018;-79
2021/12/20 04:09:07;;;;;;;;;;;2.40;99.90;;;;;;5092123;28;20289;-82
2021/12/20 04:11:33;;;;;;;;;;;2.30;99.90;;;;;;5077153;28;19924;-79
2021/12/20 04:13:59;;;;;;;;;;;2.20;99.90;;;;;;5050521;28;19966;-79
2021/12/20 04:16:24;;;;;;;;;;;2.20;99.90;;;;;;5074872;28;20586;-80
2021/12/20 04:18:50;;;;;;;;;;;2.10;99.90;;;;;;5062421;28;19935;-79
2021/12/20 04:21:16;;;;;;;;;;;2.10;99.90;;;;;;5103901;28;20373;-80
2021/12/20 04:23:41;;;;;;;;;;;2.00;99.90;;;;;;5075492;28;19935;-80
2021/12/20 04:26:10;;;;;;;;;;;1.90;99.90;;;;;;5089043;28;19967;-79
2021/12/20 04:28:36;;;;;;;;;;;1.90;99.90;;;;;;5059568;28;19928;-79
2021/12/20 04:31:01;;;;;;;;;;;1.80;99.90;;;;;;5105616;28;20017;-79
2021/12/20 04:33:27;;;;;;;;;;;1.80;99.90;;;;;;5112398;28;19924;-78
2021/12/20 04:35:53;;;;;;;;;;;1.80;99.90;;;;;;5128638;28;19971;-79
2021/12/20 04:38:19;;;;;;;;;;;1.70;99.90;;;;;;5094023;28;19923;-79
2021/12/20 04:40:45;;;;;;;;;;;1.70;99.90;;;;;;5111897;28;19964;-79
2021/12/20 04:43:10;;;;;;;;;;;1.60;99.90;;;;;;5079578;28;20046;-79
2021/12/20 04:45:36;;;;;;;;;;;1.50;99.90;;;;;;5080229;28;20396;-80
2021/12/20 04:48:02;;;;;;;;;;;1.50;99.90;;;;;;5099669;28;19924;-80
2021/12/20 04:50:28;;;;;;;;;;;1.50;99.90;;;;;;5097066;28;19924;-82
2021/12/20 04:52:55;;;;;;;;;;;1.40;99.90;;;;;;5096041;28;19931;-80
2021/12/20 04:55:21;;;;;;;;;;;1.40;99.90;;;;;;5077261;28;20010;-80
2021/12/20 04:57:47;;;;;;;;;;;1.40;99.90;;;;;;5115940;28;20078;-80
2021/12/20 05:00:15;;;;;;;;;;;1.30;99.90;;;;;;5089698;28;19924;-83
2021/12/20 05:02:40;;;;;;;;;;;1.30;99.90;;;;;;5072424;28;19924;-79
2021/12/20 05:05:06;;;;;;;;;;;1.30;99.90;;;;;;5072600;28;19924;-79
2021/12/20 05:07:32;;;;;;;;;;;1.20;99.90;;;;;;5067334;28;19928;-79
2021/12/20 05:10:01;;;;;;;;;;;1.20;99.90;;;;;;5115625;28;20274;-83
2021/12/20 05:12:27;;;;;;;;;;;1.20;99.90;;;;;;5077478;28;19924;-80
2021/12/20 05:14:53;;;;;;;;;;;1.20;99.90;;;;;;5113520;27;19928;-79
2021/12/20 05:17:18;;;;;;;;;;;1.10;99.90;;;;;;5091106;28;19934;-79
2021/12/20 05:19:44;;;;;;;;;;;1.00;99.90;;;;;;5095448;28;20018;-81
2021/12/20 05:22:10;;;;;;;;;;;0.90;99.90;;;;;;5084552;28;19934;-80
2021/12/20 05:24:36;;;;;;;;;;;0.80;99.90;;;;;;5097129;28;19924;-79
2021/12/20 05:27:02;;;;;;;;;;;0.90;99.90;;;;;;5114698;28;20011;-88
2021/12/20 05:29:28;;;;;;;;;;;0.80;99.90;;;;;;5091790;28;20027;-82
2021/12/20 05:31:53;;;;;;;;;;;0.80;99.90;;;;;;5085941;28;20339;-78
2021/12/20 05:34:19;;;;;;;;;;;0.70;99.90;;;;;;5114448;28;19923;-78
2021/12/20 05:36:45;;;;;;;;;;;0.70;99.90;;;;;;5078049;28;19931;-80
2021/12/20 05:39:11;;;;;;;;;;;0.70;99.90;;;;;;5090869;28;19973;-79
2021/12/20 05:41:36;;;;;;;;;;;0.80;99.90;;;;;;5063095;28;19946;-79
2021/12/20 05:44:02;;;;;;;;;;;0.80;99.90;;;;;;5078496;28;19930;-79
2021/12/20 05:46:28;;;;;;;;;;;0.80;99.90;;;;;;5110688;28;19935;-81
2021/12/20 05:48:53;;;;;;;;;;;0.70;99.90;;;;;;5079693;28;20113;-79
2021/12/20 05:51:19;;;;;;;;;;;0.70;99.90;;;;;;5127767;27;19927;-81
2021/12/20 05:53:44;;;;;;;;;;;0.70;99.90;;;;;;5093933;28;19932;-79
2021/12/20 05:56:10;;;;;;;;;;;0.60;99.90;;;;;;5092277;28;20640;-80
2021/12/20 05:58:35;;;;;;;;;;;0.50;99.90;;;;;;5118155;27;19924;-79
2021/12/20 06:01:01;;;;;;;;;;;0.50;99.90;;;;;;5107314;28;20380;-79
2021/12/20 06:03:27;;;;;;;;;;;0.50;99.90;;;;;;5078315;28;19932;-79
2021/12/20 06:05:52;;;;;;;;;;;0.50;99.90;;;;;;5113859;28;19953;-79
2021/12/20 06:08:18;;;;;;;;;;;0.50;99.90;;;;;;5060646;28;19934;-80
2021/12/20 06:10:43;;;;;;;;;;;0.50;99.90;;;;;;5090616;28;19927;-80
2021/12/20 06:13:09;;;;;;;;;;;0.50;99.90;;;;;;5095376;28;19938;-87
2021/12/20 06:15:34;;;;;;;;;;;0.50;99.90;;;;;;5095544;28;19934;-79
2021/12/20 06:18:00;;;;;;;;;;;0.50;99.90;;;;;;5124538;27;19928;-78
2021/12/20 06:20:26;;;;;;;;;;;0.60;99.90;;;;;;5094966;28;19924;-79
2021/12/20 06:22:51;;;;;;;;;;;0.50;99.90;;;;;;5056511;28;19924;-79
2021/12/20 06:25:17;;;;;;;;;;;0.40;99.90;;;;;;5093728;28;19924;-78
2021/12/20 06:27:43;;;;;;;;;;;0.40;99.90;;;;;;5094611;28;19930;-81
2021/12/20 06:30:10;;;;;;;;;;;0.30;99.90;;;;;;5095871;28;20258;-80
2021/12/20 06:32:36;;;;;;;;;;;0.30;99.90;;;;;;5077141;28;20033;-82
2021/12/20 06:35:03;;;;;;;;;;;0.30;99.90;;;;;;5099904;28;19932;-80
2021/12/20 06:37:30;;;;;;;;;;;0.20;99.90;;;;;;5092866;28;19971;-80
2021/12/20 06:39:55;;;;;;;;;;;0.10;99.90;;;;;;5090818;28;20024;-80
2021/12/20 06:42:21;;;;;;;;;;;0.10;99.90;;;;;;5104402;28;19955;-80
2021/12/20 06:44:46;;;;;;;;;;;0.10;99.90;;;;;;5099605;28;19931;-77
2021/12/20 06:47:13;;;;;;;;;;;0.00;99.90;;;;;;5105498;28;19923;-87
2021/12/20 06:49:38;;;;;;;;;;;0.00;99.90;;;;;;5093618;28;19935;-81
2021/12/20 06:52:04;;;;;;;;;;;0.00;99.90;;;;;;5090397;28;20300;-76
2021/12/20 06:54:30;;;;;;;;;;;-0.10;99.90;;;;;;5076089;28;19980;-81
2021/12/20 06:56:55;;;;;;;;;;;0.00;99.90;;;;;;5075004;28;19923;-79
2021/12/20 06:59:22;;;;;;;;;;;-0.10;99.90;;;;;;5102126;28;19924;-80
2021/12/20 07:01:48;;;;;;;;;;;-0.10;99.90;;;;;;5084955;28;19928;-80
2021/12/20 07:04:14;;;;;;;;;;;-0.10;99.90;;;;;;5070496;28;20056;-84
2021/12/20 07:06:40;;;;;;;;;;;-0.10;99.90;;;;;;5093301;28;19967;-82
2021/12/20 07:09:07;;;;;;;;;;;-0.20;99.90;;;;;;5093319;28;19986;-81
2021/12/20 07:11:33;;;;;;;;;;;-0.20;99.90;;;;;;5093531;28;19967;-80
2021/12/20 07:13:58;;;;;;;;;;;-0.30;99.90;;;;;;5077528;28;20371;-81
2021/12/20 07:16:24;;;;;;;;;;;-0.30;99.90;;;;;;5093881;28;19927;-81
2021/12/20 07:18:49;;;;;;;;;;;-0.30;99.90;;;;;;5094055;28;19938;-81
2021/12/20 07:21:15;;;;;;;;;;;-0.40;99.90;;;;;;5093962;28;20018;-81
2021/12/20 07:23:41;;;;;;;;;;;-0.40;99.90;;;;;;5093487;28;19924;-80
2021/12/20 07:26:09;;;;;;;;;;;-0.30;99.90;;;;;;5074910;28;20356;-80
2021/12/20 07:28:35;;;;;;;;;;;-0.30;99.90;;;;;;5092515;28;19931;-81
2021/12/20 07:31:00;;;;;;;;;;;-0.40;99.90;;;;;;5077693;28;19977;-80
2021/12/20 07:33:26;;;;;;;;;;;-0.40;99.90;;;;;;5093454;28;20385;-81
2021/12/20 07:35:52;;;;;;;;;;;-0.50;99.90;;;;;;5093665;28;19930;-81
2021/12/20 07:38:18;;;;;;;;;;;-0.50;99.90;;;;;;5094022;28;19928;-85
2021/12/20 07:40:44;;;;;;;;;;;-0.50;99.90;;;;;;5092046;28;19939;-80
2021/12/20 07:43:10;;;;;;;;;;;-0.50;99.90;;;;;;5072140;28;19924;-80
2021/12/20 07:45:36;;;;;;;;;;;-0.50;99.90;;;;;;5092550;28;19927;-79
2021/12/20 07:48:02;;;;;;;;;;;-0.50;99.90;;;;;;5098194;28;19930;-80
2021/12/20 07:50:28;;;;;;;;;;;-0.60;99.90;;;;;;5093168;28;19928;-80
2021/12/20 07:52:54;;;;;;;;;;;-0.60;99.90;;;;;;5073906;28;19967;-81
2021/12/20 07:55:20;;;;;;;;;;;-0.60;99.90;;;;;;5080509;28;19974;-85
2021/12/20 07:57:45;;;;;;;;;;;-0.70;99.90;;;;;;5076583;28;19952;-82
2021/12/20 08:00:11;;;;;;;;;;;-0.70;99.90;;;;;;5120054;27;19931;-79
2021/12/20 08:02:37;;;;;;;;;;;-0.70;99.90;;;;;;5093615;28;20018;-80
2021/12/20 08:05:03;;;;;;;;;;;-0.70;99.90;;;;;;5090239;27;19974;-80
2021/12/20 08:07:29;;;;;;;;;;;-0.60;99.90;;;;;;5076700;28;21144;-80
2021/12/20 08:09:54;;;;;;;;;;;-0.50;99.90;;;;;;5127703;27;19932;-82
2021/12/20 08:12:20;;;;;;;;;;;-0.60;99.90;;;;;;5093654;28;19931;-79
2021/12/20 08:14:46;;;;;;;;;;;-0.60;99.90;;;;;;5111784;28;19923;-79
2021/12/20 08:17:11;;;;;;;;;;;-0.60;99.90;;;;;;5093144;28;19977;-79
2021/12/20 08:19:37;;;;;;;;;;;-0.60;99.90;;;;;;5094198;28;19927;-79
2021/12/20 08:22:03;;;;;;;;;;;-0.60;99.90;;;;;;5077098;28;19991;-78
2021/12/20 08:24:28;;;;;;;;;;;-0.60;99.90;;;;;;5060015;28;19924;-81
2021/12/20 08:26:54;;;;;;;;;;;-0.60;99.90;;;;;;5076593;28;20266;-79
2021/12/20 08:29:23;;;;;;;;;;;-0.60;99.90;;;;;;5107020;28;19924;-79
2021/12/20 08:31:48;;;;;;;;;;;-0.60;99.90;;;;;;5076344;28;19924;-80
2021/12/20 08:34:14;;;;;;;;;;;-0.60;99.90;;;;;;5093053;28;20572;-79
2021/12/20 08:36:39;;;;;;;;;;;-0.70;99.90;;;;;;5075946;28;19968;-79
2021/12/20 08:39:05;;;;;;;;;;;-0.60;99.90;;;;;;5076878;28;19934;-81
2021/12/20 08:41:31;;;;;;;;;;;-0.70;99.90;;;;;;5092821;28;19939;-79
2021/12/20 08:43:56;;;;;;;;;;;-0.70;99.90;;;;;;5093798;28;19930;-79
2021/12/20 08:46:22;;;;;;;;;;;-0.70;99.90;;;;;;5092867;28;20006;-79
2021/12/20 08:48:48;;;;;;;;;;;-0.70;99.90;;;;;;5093313;28;19950;-79
2021/12/20 08:51:13;;;;;;;;;;;-0.60;99.90;;;;;;5092945;28;20033;-79
2021/12/20 08:53:40;;;;;;;;;;;-0.60;99.90;;;;;;5101598;28;19928;-79
2021/12/20 08:56:06;;;;;;;;;;;-0.60;99.90;;;;;;5107299;28;19932;-80
2021/12/20 08:58:31;;;;;;;;;;;-0.50;99.90;;;;;;5073140;28;20426;-79
2021/12/20 09:00:57;;;;;;;;;;;-0.60;99.90;;;;;;5090876;28;19925;-79
2021/12/20 09:03:23;;;;;;;;;;;-0.50;99.90;;;;;;5090167;28;19947;-81
2021/12/20 09:05:49;;;;;;;;;;;-0.50;99.90;;;;;;5073075;28;19924;-79
2021/12/20 09:08:17;;;;;;;;;;;-0.50;99.90;;;;;;5095847;28;19939;-81
2021/12/20 09:10:42;;;;;;;;;;;-0.50;99.90;;;;;;5093505;28;20015;-79
2021/12/20 09:13:08;;;;;;;;;;;-0.50;99.90;;;;;;5089814;28;20084;-79
2021/12/20 09:15:34;;;;;;;;;;;-0.50;99.90;;;;;;5091789;28;20033;-79
2021/12/20 09:18:00;;;;;;;;;;;-0.50;99.90;;;;;;5090187;28;19954;-80
2021/12/20 09:20:26;;;;;;;;;;;-0.50;99.90;;;;;;5087750;28;20300;-78
2021/12/20 09:22:54;;;;;;;;;;;-0.50;99.90;;;;;;5070425;28;19924;-80
2021/12/20 09:25:21;;;;;;;;;;;-0.40;99.90;;;;;;5089750;28;19943;-79
2021/12/20 09:27:46;;;;;;;;;;;-0.40;99.90;;;;;;5095501;28;20087;-80
2021/12/20 09:30:12;;;;;;;;;;;-0.30;99.90;;;;;;5089570;28;20687;-81
2021/12/20 09:32:38;;;;;;;;;;;-0.30;99.90;;;;;;5067588;28;19950;-79
2021/12/20 09:35:04;;;;;;;;;;;-0.20;99.90;;;;;;5092152;28;19927;-78
2021/12/20 09:37:29;;;;;;;;;;;-0.10;99.90;;;;;;5099973;28;20364;-78
2021/12/20 09:39:55;;;;;;;;;;;-0.10;99.90;;;;;;5092995;28;19928;-78
2021/12/20 09:42:21;;;;;;;;;;;0.00;99.90;;;;;;5076330;28;19930;-78
2021/12/20 09:44:48;;;;;;;;;;;0.10;99.90;;;;;;5075907;28;19928;-78
2021/12/20 09:47:13;;;;;;;;;;;0.10;99.90;;;;;;5093521;28;20037;-82
2021/12/20 09:49:39;;;;;;;;;;;0.20;99.90;;;;;;5093499;28;20372;-79
2021/12/20 09:52:05;;;;;;;;;;;0.20;99.90;;;;;;5077758;28;19928;-82
2021/12/20 09:54:30;;;;;;;;;;;0.20;99.90;;;;;;5092001;28;19924;-78
2021/12/20 09:56:57;;;;;;;;;;;0.30;99.90;;;;;;5091924;28;19928;-79
2021/12/20 09:59:26;;;;;;;;;;;0.30;99.90;;;;;;5075944;28;19924;-80
2021/12/20 10:01:53;;;;;;;;;;;0.40;99.90;;;;;;5092296;28;19924;-78
2021/12/20 10:04:20;;;;;;;;;;;0.40;99.90;;;;;;5082936;28;19935;-80
2021/12/20 10:06:59;;;;;;;;;;;0.50;99.90;;;;;;5092185;28;19973;-82
2021/12/20 10:09:31;;;;;;;;;;;0.50;99.90;;;;;;5062594;28;19978;-78
2021/12/20 10:12:16;;;;;;;;;;;0.60;99.90;;;;;;5116471;27;19920;-78
2021/12/20 10:14:50;;;;;;;;;;;0.60;99.90;;;;;;5092505;28;19930;-79
2021/12/20 10:17:16;;;;;;;;;;;0.70;99.90;;;;;;5094462;28;19924;-78
2021/12/20 10:19:42;;;;;;;;;;;0.80;99.90;;;;;;5110523;28;19973;-78
2021/12/20 10:22:21;;;;;;;;;;;0.80;99.90;;;;;;5092445;28;19934;-79
2021/12/20 10:24:47;;;;;;;;;;;0.80;99.90;;;;;;5092390;28;19933;-78
2021/12/20 10:27:45;;;;;;;;;;;0.90;99.90;;;;;;5077691;28;19932;-80
2021/12/20 10:30:27;;;;;;;;;;;1.00;99.90;;;;;;5032654;28;19932;-79
2021/12/20 10:32:53;;;;;;;;;;;1.00;99.90;;;;;;5064568;28;19928;-79
2021/12/20 10:35:25;;;;;;;;;;;1.10;99.90;;;;;;5092168;28;20026;-78
2021/12/20 10:37:55;;;;;;;;;;;1.20;99.90;;;;;;5073598;28;19935;-78
2021/12/20 10:40:21;;;;;;;;;;;1.30;99.90;;;;;;5102610;28;19928;-79
2021/12/20 10:42:49;;;;;;;;;;;1.40;99.90;;;;;;5090903;28;20369;-77
2021/12/20 10:45:17;;;;;;;;;;;1.50;99.90;;;;;;5092000;28;19995;-78
2021/12/20 10:47:43;;;;;;;;;;;1.60;99.90;;;;;;5092120;28;19928;-78
2021/12/20 10:50:34;;;;;;;;;;;1.70;99.90;;;;;;5091920;28;19924;-79
2021/12/20 10:53:24;;;;;;;;;;;1.80;99.90;;;;;;5072694;28;19927;-78
2021/12/20 10:55:51;;;;;;;;;;;2.00;99.90;;;;;;5101325;28;20377;-78
2021/12/20 10:58:19;;;;;;;;;;;2.10;99.90;;;;;;5073362;28;20451;-78
2021/12/20 11:00:45;;;;;;;;;;;2.20;99.90;;;;;;5073066;28;19928;-80
2021/12/20 11:06:04;;;;;;;;;;;2.30;99.90;;;;;;5081485;28;20729;-87
2021/12/20 11:11:14;;;;;;;;;;;2.20;99.90;;;;;;5101474;28;19985;-78
2021/12/20 11:13:40;;;;;;;;;;;2.20;99.90;;;;;;5090814;28;20010;-79
2021/12/20 11:16:28;;;;;;;;;;;2.30;99.90;;;;;;5090478;28;20096;-80
2021/12/20 11:19:19;;;;;;;;;;;2.20;99.90;;;;;;5090836;28;19935;-80
2021/12/20 11:21:53;;;;;;;;;;;2.20;99.90;;;;;;5079703;28;19928;-84
2021/12/20 11:24:23;;;;;;;;;;;2.20;99.90;;;;;;5069787;28;20042;-79
2021/12/20 11:26:49;;;;;;;;;;;2.20;99.90;;;;;;5062786;28;20331;-79
2021/12/20 11:29:15;;;;;;;;;;;2.10;99.90;;;;;;5090785;28;19932;-80
2021/12/20 11:31:41;;;;;;;;;;;2.20;99.90;;;;;;5091385;28;20315;-79
2021/12/20 11:34:07;;;;;;;;;;;2.20;99.90;;;;;;5073193;28;20509;-79
2021/12/20 11:36:32;;;;;;;;;;;2.40;99.90;;;;;;5091448;28;19931;-79
2021/12/20 11:38:58;;;;;;;;;;;2.50;99.90;;;;;;5090427;28;19924;-78
2021/12/20 11:41:27;;;;;;;;;;;2.40;99.90;;;;;;5124962;27;19928;-79
2021/12/20 11:43:54;;;;;;;;;;;2.50;99.90;;;;;;5074740;28;19953;-79
2021/12/20 11:46:20;;;;;;;;;;;2.50;99.90;;;;;;5084933;28;19928;-79
2021/12/20 11:48:46;;;;;;;;;;;2.50;99.90;;;;;;5095175;28;19924;-79
2021/12/20 11:51:11;;;;;;;;;;;2.50;99.90;;;;;;5090667;28;19924;-78
2021/12/20 11:53:40;;;;;;;;;;;2.50;99.90;;;;;;5110179;28;19923;-78
2021/12/20 11:56:06;;;;;;;;;;;2.50;99.90;;;;;;5090645;28;20024;-78
2021/12/20 11:58:33;;;;;;;;;;;2.50;99.90;;;;;;5110730;27;19924;-77
2021/12/20 12:01:03;;;;;;;;;;;2.40;99.90;;;;;;5126469;27;19957;-78
2021/12/20 12:03:29;;;;;;;;;;;2.40;99.90;;;;;;5111394;28;19973;-78
2021/12/20 12:05:54;;;;;;;;;;;2.50;99.90;;;;;;5110762;27;19939;-78
2021/12/20 12:08:27;;;;;;;;;;;2.40;99.90;;;;;;5112418;28;20372;-78
2021/12/20 12:10:56;;;;;;;;;;;2.50;99.90;;;;;;5093929;28;19967;-86
2021/12/20 12:13:23;;;;;;;;;;;2.50;99.90;;;;;;5093265;28;19930;-80
2021/12/20 12:16:15;;;;;;;;;;;2.50;99.90;;;;;;5077172;28;20389;-79
2021/12/20 12:18:42;;;;;;;;;;;2.40;99.90;;;;;;5094070;28;20018;-79
2021/12/20 12:21:07;;;;;;;;;;;2.50;99.90;;;;;;5127835;28;20014;-79
2021/12/20 12:23:42;;;;;;;;;;;2.60;99.90;;;;;;5076828;28;20350;-79
2021/12/20 12:26:09;;;;;;;;;;;2.60;99.90;;;;;;5094029;28;19973;-78
2021/12/20 12:28:54;;;;;;;;;;;2.70;99.90;;;;;;5076787;28;19978;-82
2021/12/20 12:31:20;;;;;;;;;;;2.70;99.90;;;;;;5094969;28;19930;-78
2021/12/20 12:33:46;;;;;;;;;;;2.70;99.90;;;;;;5072473;28;19927;-78
2021/12/20 12:36:11;;;;;;;;;;;2.70;99.90;;;;;;5098925;28;20026;-78
2021/12/20 12:38:46;;;;;;;;;;;2.70;99.90;;;;;;5075464;28;20341;-78
2021/12/20 12:41:19;;;;;;;;;;;2.70;99.90;;;;;;5068085;28;20365;-78
2021/12/20 12:43:52;;;;;;;;;;;2.70;99.90;;;;;;5100548;28;20703;-82
2021/12/20 12:46:36;;;;;;;;;;;2.70;99.90;;;;;;5076620;28;19955;-78
2021/12/20 12:49:20;;;;;;;;;;;2.70;99.90;;;;;;5096557;28;20375;-78
2021/12/20 12:51:50;;;;;;;;;;;2.70;99.90;;;;;;5088022;28;19924;-79
2021/12/20 12:54:35;;;;;;;;;;;2.80;99.90;;;;;;5114392;28;19923;-78
2021/12/20 12:57:10;;;;;;;;;;;2.80;99.90;;;;;;5078735;28;19958;-78
2021/12/20 12:59:41;;;;;;;;;;;2.80;99.90;;;;;;5079564;28;19932;-79
2021/12/20 13:02:08;;;;;;;;;;;2.80;99.90;;;;;;5112847;28;19930;-78
2021/12/20 13:04:47;;;;;;;;;;;3.00;99.90;;;;;;5078518;28;19977;-82
2021/12/20 13:07:16;;;;;;;;;;;2.90;99.90;;;;;;5077953;28;19973;-78
2021/12/20 13:09:46;;;;;;;;;;;3.00;99.90;;;;;;5115622;28;20380;-78
2021/12/20 13:12:17;;;;;;;;;;;2.90;99.90;;;;;;5080289;28;19923;-78
2021/12/20 13:14:52;;;;;;;;;;;3.00;99.90;;;;;;5096233;28;19924;-80
2021/12/20 13:17:27;;;;;;;;;;;3.00;99.90;;;;;;5096372;28;19951;-78
2021/12/20 13:20:07;;;;;;;;;;;2.90;99.90;;;;;;5079265;28;19928;-80
2021/12/20 13:22:32;;;;;;;;;;;2.80;99.90;;;;;;5079183;28;19931;-78
2021/12/20 13:24:58;;;;;;;;;;;2.80;99.90;;;;;;5094951;28;19924;-85
2021/12/20 13:27:29;;;;;;;;;;;2.80;99.90;;;;;;5098881;27;20395;-80
2021/12/20 13:29:55;;;;;;;;;;;2.70;99.90;;;;;;5099803;27;19927;-84
2021/12/20 13:32:21;;;;;;;;;;;2.70;99.90;;;;;;5131071;27;19980;-78
2021/12/20 13:34:47;;;;;;;;;;;2.70;99.90;;;;;;5079169;28;19931;-79
2021/12/20 13:37:12;;;;;;;;;;;2.70;99.90;;;;;;5096146;28;19932;-77
2021/12/20 13:39:39;;;;;;;;;;;2.70;99.90;;;;;;5095393;28;20318;-80
2021/12/20 13:42:06;;;;;;;;;;;2.80;99.90;;;;;;5078995;28;19947;-78
2021/12/20 13:44:32;;;;;;;;;;;2.80;99.90;;;;;;5080248;28;20273;-77
2021/12/20 13:47:02;;;;;;;;;;;2.80;99.90;;;;;;5079323;28;19963;-79
2021/12/20 13:49:27;;;;;;;;;;;2.80;99.90;;;;;;5079979;28;19973;-79
2021/12/20 13:51:57;;;;;;;;;;;2.80;99.90;;;;;;5096685;28;20025;-80
2021/12/20 13:54:33;;;;;;;;;;;2.80;99.90;;;;;;5115846;27;19985;-79
2021/12/20 13:57:14;;;;;;;;;;;2.70;99.90;;;;;;5095878;28;19930;-83
2021/12/20 13:59:52;;;;;;;;;;;2.60;99.90;;;;;;5100223;28;19924;-79
2021/12/20 14:02:19;;;;;;;;;;;2.60;99.90;;;;;;5078633;28;19924;-79
2021/12/20 14:04:46;;;;;;;;;;;2.60;99.90;;;;;;5114624;28;20385;-79
2021/12/20 14:07:26;;;;;;;;;;;2.70;99.90;;;;;;5079048;28;20349;-79
2021/12/20 14:09:59;;;;;;;;;;;2.60;99.90;;;;;;5098800;27;19923;-80
2021/12/20 14:12:31;;;;;;;;;;;2.60;99.90;;;;;;5114931;27;19939;-80
2021/12/20 14:14:59;;;;;;;;;;;2.70;99.90;;;;;;5078541;28;19976;-77
2021/12/20 14:17:25;;;;;;;;;;;2.70;99.90;;;;;;5077967;28;19935;-84
2021/12/20 14:19:57;;;;;;;;;;;2.70;99.90;;;;;;5095637;28;19927;-79
2021/12/20 14:22:24;;;;;;;;;;;2.70;99.90;;;;;;5094952;28;19924;-79
2021/12/20 14:24:57;;;;;;;;;;;2.80;99.90;;;;;;5094702;28;19958;-79
2021/12/20 14:27:23;;;;;;;;;;;2.90;99.90;;;;;;5094929;27;19924;-78
2021/12/20 14:29:48;;;;;;;;;;;2.90;99.90;;;;;;5095059;28;20048;-80
2021/12/20 14:32:34;;;;;;;;;;;2.90;99.90;;;;;;5077520;28;19923;-80
2021/12/20 14:35:18;;;;;;;;;;;2.80;99.90;;;;;;5095812;28;20032;-79
2021/12/20 14:37:43;;;;;;;;;;;2.80;99.90;;;;;;5095660;28;19923;-80
2021/12/20 14:40:09;;;;;;;;;;;2.70;99.90;;;;;;5057861;28;19924;-81
2021/12/20 14:42:34;;;;;;;;;;;2.70;99.90;;;;;;5107469;28;20384;-80
2021/12/20 14:45:06;;;;;;;;;;;2.60;99.90;;;;;;5077983;28;20018;-82
2021/12/20 14:47:39;;;;;;;;;;;2.60;99.90;;;;;;5078469;28;19924;-80
2021/12/20 14:50:24;;;;;;;;;;;2.60;99.90;;;;;;5068649;27;20408;-81
2021/12/20 14:52:49;;;;;;;;;;;2.70;99.90;;;;;;5117750;27;19935;-80